createdAt,value
2024-03-12T00:01:38.342Z,7.63
2024-03-12T00:04:09.368Z,7.63
2024-03-12T00:06:43.563Z,7.63
2024-03-12T00:09:13.285Z,7.61
2024-03-12T00:11:43.780Z,7.60
2024-03-12T00:14:15.651Z,7.60
2024-03-12T00:16:46.272Z,7.60
2024-03-12T00:19:18.515Z,7.60
2024-03-12T00:21:50.949Z,7.61
2024-03-12T00:24:20.782Z,7.60
2024-03-12T00:26:51.353Z,7.61
2024-03-12T00:29:21.189Z,7.60
2024-03-12T00:31:52.599Z,7.59
2024-03-12T00:34:22.411Z,7.59
2024-03-12T00:36:54.761Z,7.59
2024-03-12T00:39:25.398Z,7.61
2024-03-12T00:41:55.694Z,7.61
2024-03-12T00:44:25.921Z,7.62
2024-03-12T00:46:58.531Z,7.63
2024-03-12T00:49:31.958Z,7.63
2024-03-12T00:52:05.099Z,7.62
2024-03-12T00:54:37.184Z,7.60
2024-03-12T00:57:08.205Z,7.57
2024-03-12T00:59:38.532Z,7.56
2024-03-12T01:02:08.443Z,7.54
2024-03-12T01:04:38.330Z,7.55
2024-03-12T01:07:12.300Z,7.52
2024-03-12T01:09:43.198Z,7.52
2024-03-12T01:12:13.002Z,7.52
2024-03-12T01:14:42.976Z,7.54
2024-03-12T01:17:12.804Z,7.54
2024-03-12T01:19:42.901Z,7.55
2024-03-12T01:22:16.013Z,7.56
2024-03-12T01:24:46.760Z,7.56
2024-03-12T01:27:16.584Z,7.55
2024-03-12T01:29:49.590Z,7.56
2024-03-12T01:32:21.687Z,7.53
2024-03-12T01:34:51.587Z,7.53
2024-03-12T01:37:25.850Z,7.52
2024-03-12T01:39:56.424Z,7.52
2024-03-12T01:42:26.229Z,7.51
2024-03-12T01:44:56.534Z,7.50
2024-03-12T01:47:26.454Z,7.49
2024-03-12T01:49:56.249Z,7.47
2024-03-12T01:52:30.495Z,7.45
2024-03-12T01:55:00.421Z,7.44
2024-03-12T01:57:30.220Z,7.42
2024-03-12T01:59:59.952Z,7.42
2024-03-12T02:02:27.153Z,7.42
2024-03-12T02:04:57.868Z,7.41
2024-03-12T02:07:30.903Z,7.39
2024-03-12T02:10:04.675Z,7.35
2024-03-12T02:12:34.840Z,7.33
2024-03-12T02:15:06.330Z,7.26
2024-03-12T02:17:36.292Z,7.22
2024-03-12T02:20:09.687Z,7.16
2024-03-12T02:22:42.044Z,7.11
2024-03-12T02:25:14.822Z,7.09
2024-03-12T02:27:44.611Z,7.07
2024-03-12T02:30:15.045Z,7.05
2024-03-12T02:32:47.460Z,7.03
2024-03-12T02:35:18.124Z,7.02
2024-03-12T02:37:48.241Z,7.03
2024-03-12T02:40:21.955Z,7.01
2024-03-12T02:42:51.768Z,6.99
2024-03-12T02:45:22.756Z,6.98
2024-03-12T02:47:52.597Z,6.95
2024-03-12T02:50:23.241Z,6.94
2024-03-12T02:52:52.976Z,6.92
2024-03-12T02:55:25.517Z,6.92
2024-03-12T02:57:55.336Z,6.92
2024-03-12T03:00:25.358Z,6.91
2024-03-12T03:02:55.916Z,6.90
2024-03-12T03:05:25.963Z,6.92
2024-03-12T03:07:56.107Z,6.93
2024-03-12T03:10:28.510Z,6.93
2024-03-12T03:12:58.485Z,6.93
2024-03-12T03:15:28.352Z,6.95
2024-03-12T03:17:58.300Z,6.95
2024-03-12T03:20:28.231Z,6.96
2024-03-12T03:22:58.014Z,6.97
2024-03-12T03:25:30.536Z,6.97
2024-03-12T03:28:00.358Z,6.96
2024-03-12T03:30:30.293Z,6.95
2024-03-12T03:32:57.588Z,6.95
2024-03-12T03:35:27.413Z,6.94
2024-03-12T03:37:57.709Z,6.94
2024-03-12T03:40:30.303Z,6.93
2024-03-12T03:43:00.057Z,6.93
2024-03-12T03:45:29.931Z,6.94
2024-03-12T03:47:59.998Z,6.97
2024-03-12T03:50:29.949Z,6.96
2024-03-12T03:52:59.907Z,6.97
2024-03-12T03:55:32.409Z,6.97
2024-03-12T03:58:02.351Z,6.94
2024-03-12T04:00:37.051Z,6.94
2024-03-12T04:03:08.034Z,6.96
2024-03-12T04:05:37.851Z,6.97
2024-03-12T04:08:09.005Z,6.98
2024-03-12T04:10:43.744Z,7.00
2024-03-12T04:13:15.794Z,7.01
2024-03-12T04:15:46.602Z,7.03
2024-03-12T04:18:20.327Z,7.02
2024-03-12T04:20:50.282Z,6.99
2024-03-12T04:23:20.014Z,6.94
2024-03-12T04:25:54.552Z,6.89
2024-03-12T04:28:24.271Z,6.85
2024-03-12T04:30:54.063Z,6.80
2024-03-12T04:33:25.588Z,6.78
2024-03-12T04:35:56.899Z,6.75
2024-03-12T04:38:27.163Z,6.73
2024-03-12T04:41:00.203Z,6.72
2024-03-12T04:43:29.962Z,6.72
2024-03-12T04:45:59.817Z,6.73
2024-03-12T04:48:29.613Z,6.74
2024-03-12T04:50:59.440Z,6.75
2024-03-12T04:53:29.593Z,6.75
2024-03-12T04:56:01.940Z,6.76
2024-03-12T04:58:32.807Z,6.74
2024-03-12T05:01:03.022Z,6.75
2024-03-12T05:03:36.008Z,6.74
2024-03-12T05:06:06.489Z,6.74
2024-03-12T05:08:36.218Z,6.70
2024-03-12T05:11:19.441Z,6.68
2024-03-12T05:13:49.737Z,6.65
2024-03-12T05:16:34.261Z,6.64
2024-03-12T05:19:12.856Z,6.61
2024-03-12T05:21:52.610Z,6.56
2024-03-12T05:24:28.447Z,6.54
2024-03-12T05:27:17.122Z,6.50
2024-03-12T05:29:59.638Z,6.49
2024-03-12T05:32:55.552Z,6.50
2024-03-12T05:35:32.807Z,6.50
2024-03-12T05:38:12.140Z,6.49
2024-03-12T05:40:58.178Z,6.49
2024-03-12T05:43:42.962Z,6.51
2024-03-12T05:46:25.226Z,6.51
2024-03-12T05:48:55.188Z,6.54
2024-03-12T05:51:27.704Z,6.55
2024-03-12T05:53:59.669Z,6.58
2024-03-12T05:56:30.715Z,6.62
2024-03-12T05:59:03.082Z,6.62
2024-03-12T06:01:33.013Z,6.64
2024-03-12T06:04:04.486Z,6.66
2024-03-12T06:06:35.448Z,6.67
2024-03-12T06:09:05.234Z,6.70
2024-03-12T06:11:36.150Z,6.73
2024-03-12T06:14:08.705Z,6.76
2024-03-12T06:16:38.519Z,6.76
2024-03-12T06:19:08.410Z,6.76
2024-03-12T06:21:38.315Z,6.74
2024-03-12T06:24:09.780Z,6.73
2024-03-12T06:26:40.110Z,6.69
2024-03-12T06:29:15.312Z,6.69
2024-03-12T06:31:46.372Z,6.69
2024-03-12T06:34:17.535Z,6.69
2024-03-12T06:36:47.613Z,6.68
2024-03-12T06:39:19.206Z,6.68
2024-03-12T06:41:53.027Z,6.68
2024-03-12T06:44:27.051Z,6.67
2024-03-12T06:46:56.918Z,6.67
2024-03-12T06:49:26.996Z,6.69
2024-03-12T06:51:56.887Z,6.70
2024-03-12T06:54:27.989Z,6.70
2024-03-12T06:56:58.049Z,6.74
2024-03-12T06:59:32.114Z,6.74
2024-03-12T07:02:01.957Z,6.78
2024-03-12T07:04:36.366Z,6.80
2024-03-12T07:07:07.596Z,6.80
2024-03-12T07:09:39.397Z,6.83
2024-03-12T07:12:10.407Z,6.85
2024-03-12T07:14:46.865Z,6.87
2024-03-12T07:17:17.478Z,6.89
2024-03-12T07:19:48.910Z,6.90
2024-03-12T07:22:19.004Z,6.91
2024-03-12T07:24:49.238Z,6.92
2024-03-12T07:27:19.686Z,6.93
2024-03-12T07:29:52.092Z,6.94
2024-03-12T07:32:22.025Z,6.95
2024-03-12T07:34:51.799Z,6.95
2024-03-12T07:37:22.323Z,6.94
2024-03-12T07:39:52.138Z,6.98
2024-03-12T07:42:22.679Z,6.99
2024-03-12T07:44:55.169Z,7.00
2024-03-12T07:47:25.593Z,7.01
2024-03-12T07:49:55.863Z,7.01
2024-03-12T07:52:26.105Z,6.98
2024-03-12T07:54:56.586Z,6.96
2024-03-12T07:57:27.861Z,6.96
2024-03-12T08:00:00.725Z,6.93
2024-03-12T08:02:31.486Z,6.91
2024-03-12T08:05:01.303Z,6.88
2024-03-12T08:07:31.564Z,6.87
2024-03-12T08:10:06.798Z,6.84
2024-03-12T08:12:38.568Z,6.81
2024-03-12T08:15:14.585Z,6.77
2024-03-12T08:17:47.836Z,6.76
2024-03-12T08:20:19.627Z,6.77
2024-03-12T08:22:49.657Z,6.78
2024-03-12T08:25:21.912Z,6.77
2024-03-12T08:27:52.218Z,6.78
2024-03-12T08:30:24.637Z,6.76
2024-03-12T08:32:54.464Z,6.76
2024-03-12T08:35:24.309Z,6.78
2024-03-12T08:37:54.225Z,6.75
2024-03-12T08:40:24.038Z,6.75
2024-03-12T08:43:01.888Z,6.75
2024-03-12T08:45:37.089Z,6.75
2024-03-12T08:48:07.644Z,6.75
2024-03-12T08:50:37.487Z,6.75
2024-03-12T08:53:07.628Z,6.74
2024-03-12T08:55:39.252Z,6.74
2024-03-12T08:58:09.379Z,6.74
2024-03-12T09:00:44.633Z,6.74
2024-03-12T09:03:17.359Z,6.75
2024-03-12T09:05:47.212Z,6.77
2024-03-12T09:08:20.065Z,6.78
2024-03-12T09:10:51.471Z,6.80
2024-03-12T09:13:21.633Z,6.82
2024-03-12T09:15:54.041Z,6.83
2024-03-12T09:18:27.137Z,6.84
2024-03-12T09:20:58.031Z,6.87
2024-03-12T09:23:30.623Z,6.90
2024-03-12T09:26:01.300Z,6.93
2024-03-12T09:28:31.153Z,6.97
2024-03-12T09:31:07.705Z,7.03
2024-03-12T09:33:37.550Z,7.09
2024-03-12T09:36:08.038Z,7.16
2024-03-12T09:38:37.830Z,7.22
2024-03-12T09:41:09.634Z,7.28
2024-03-12T09:43:40.455Z,7.35
2024-03-12T09:46:13.144Z,7.42
2024-03-12T09:48:44.090Z,7.54
2024-03-12T09:51:14.044Z,7.68
2024-03-12T09:53:46.421Z,7.81
2024-03-12T09:56:18.344Z,7.94
2024-03-12T09:58:49.492Z,8.03
2024-03-12T10:01:24.424Z,8.09
2024-03-12T10:03:57.316Z,8.13
2024-03-12T10:06:27.332Z,8.11
2024-03-12T10:09:01.197Z,8.08
2024-03-12T10:11:31.122Z,8.03
2024-03-12T10:14:05.563Z,7.98
2024-03-12T10:16:41.717Z,7.93
2024-03-12T10:19:16.207Z,7.94
2024-03-12T10:21:47.395Z,7.92
2024-03-12T10:24:19.177Z,7.89
2024-03-12T10:26:49.418Z,7.82
2024-03-12T10:29:20.732Z,7.75
2024-03-12T10:31:53.039Z,7.68
2024-03-12T10:34:22.998Z,7.62
2024-03-12T10:36:53.414Z,7.58
2024-03-12T10:39:33.783Z,7.53
2024-03-12T10:42:05.334Z,7.50
2024-03-12T10:44:37.974Z,7.47
2024-03-12T10:47:12.316Z,7.48
2024-03-12T10:49:44.946Z,7.50
2024-03-12T10:52:15.818Z,7.53
2024-03-12T10:55:02.186Z,7.57
2024-03-12T10:57:36.009Z,7.62
2024-03-12T11:00:09.627Z,7.68
2024-03-12T11:02:43.935Z,7.73
2024-03-12T11:05:13.867Z,7.76
2024-03-12T11:07:46.052Z,7.83
2024-03-12T11:10:16.549Z,7.93
2024-03-12T11:12:46.716Z,8.02
2024-03-12T11:15:17.237Z,8.14
2024-03-12T11:17:53.288Z,8.24
2024-03-12T11:20:28.119Z,8.34
2024-03-12T11:23:02.115Z,8.43
2024-03-12T11:25:36.625Z,8.55
2024-03-12T11:28:22.595Z,8.68
2024-03-12T11:31:03.177Z,8.77
2024-03-12T11:33:56.052Z,8.84
2024-03-12T11:36:30.676Z,8.89
2024-03-12T11:39:02.764Z,8.95
2024-03-12T11:42:07.222Z,9.01
2024-03-12T11:44:50.628Z,9.00
2024-03-12T11:47:36.466Z,8.99
2024-03-12T11:50:36.078Z,8.97
2024-03-12T11:53:19.647Z,8.96
2024-03-12T11:55:59.407Z,8.95
2024-03-12T11:58:34.180Z,8.96
2024-03-12T12:01:04.597Z,8.94
2024-03-12T12:03:36.134Z,8.96
2024-03-12T12:06:11.152Z,8.98
2024-03-12T12:08:49.611Z,9.02
2024-03-12T12:11:23.702Z,9.07
2024-03-12T12:14:00.573Z,9.13
2024-03-12T12:16:31.607Z,9.20
2024-03-12T12:19:07.598Z,9.26
2024-03-12T12:21:40.557Z,9.31
2024-03-12T12:24:12.470Z,9.35
2024-03-12T12:26:42.452Z,9.38
2024-03-12T12:29:13.864Z,9.38
2024-03-12T12:31:43.900Z,9.39
2024-03-12T12:34:14.276Z,9.39
2024-03-12T12:36:51.410Z,9.40
2024-03-12T12:39:25.004Z,9.45
2024-03-12T12:42:00.740Z,9.54
2024-03-12T12:44:31.564Z,9.69
2024-03-12T12:47:04.331Z,9.91
2024-03-12T12:49:36.567Z,10.17
2024-03-12T12:52:09.245Z,10.45
2024-03-12T12:54:42.490Z,10.63
2024-03-12T12:57:14.261Z,10.77
2024-03-12T12:59:44.045Z,10.88
2024-03-12T13:02:19.998Z,10.97
2024-03-12T13:04:49.970Z,11.09
2024-03-12T13:07:34.416Z,11.18
2024-03-12T13:10:16.384Z,11.24
2024-03-12T13:12:46.440Z,11.18
2024-03-12T13:15:35.671Z,10.97
2024-03-12T13:18:06.072Z,10.75
2024-03-12T13:20:35.858Z,10.53
2024-03-12T13:23:09.916Z,10.35
2024-03-12T13:25:39.694Z,10.17
2024-03-12T13:28:09.969Z,10.02
2024-03-12T13:30:41.750Z,9.92
2024-03-12T13:33:11.995Z,9.85
2024-03-12T13:35:43.646Z,9.82
2024-03-12T13:38:17.032Z,9.79
2024-03-12T13:40:47.724Z,9.81
2024-03-12T13:43:17.684Z,9.87
2024-03-12T13:45:49.956Z,9.95
2024-03-12T13:48:19.756Z,10.08
2024-03-12T13:50:53.293Z,10.26
2024-03-12T13:53:28.420Z,10.46
2024-03-12T13:56:01.683Z,10.65
2024-03-12T13:58:31.617Z,10.81
2024-03-12T14:01:02.556Z,10.93
2024-03-12T14:03:33.556Z,11.01
2024-03-12T14:06:03.939Z,11.11
2024-03-12T14:08:36.338Z,11.17
2024-03-12T14:11:06.467Z,11.17
2024-03-12T14:13:36.710Z,11.12
2024-03-12T14:16:11.147Z,11.03
2024-03-12T14:18:44.056Z,10.95
2024-03-12T14:21:14.269Z,10.86
2024-03-12T14:23:48.935Z,10.74
2024-03-12T14:26:19.483Z,10.62
2024-03-12T14:28:49.485Z,10.49
2024-03-12T14:31:19.800Z,10.38
2024-03-12T14:33:50.023Z,10.27
2024-03-12T14:36:21.004Z,10.18
2024-03-12T14:38:55.137Z,10.13
2024-03-12T14:41:25.270Z,10.08
2024-03-12T14:43:55.060Z,10.04
2024-03-12T14:46:24.962Z,9.96
2024-03-12T14:48:56.352Z,9.92
2024-03-12T14:51:28.122Z,9.89
2024-03-12T14:54:00.462Z,9.86
2024-03-12T14:56:30.236Z,9.84
2024-03-12T14:59:00.082Z,9.82
2024-03-12T15:01:29.875Z,9.80
2024-03-12T15:04:01.484Z,9.78
2024-03-12T15:06:31.428Z,9.72
2024-03-12T15:09:05.081Z,9.69
2024-03-12T15:11:35.398Z,9.66
2024-03-12T15:14:07.556Z,9.63
2024-03-12T15:16:37.910Z,9.56
2024-03-12T15:19:07.993Z,9.54
2024-03-12T15:21:38.780Z,9.54
2024-03-12T15:24:11.535Z,9.53
2024-03-12T15:26:41.331Z,9.52
2024-03-12T15:29:11.169Z,9.53
2024-03-12T15:31:41.847Z,9.58
2024-03-12T15:34:11.664Z,9.62
2024-03-12T15:36:43.114Z,9.64
2024-03-12T15:39:16.146Z,9.67
2024-03-12T15:41:45.909Z,9.63
2024-03-12T15:44:18.714Z,9.59
2024-03-12T15:46:51.220Z,9.54
2024-03-12T15:49:21.856Z,9.48
2024-03-12T15:51:53.408Z,9.47
2024-03-12T15:54:26.370Z,9.44
2024-03-12T15:56:58.016Z,9.41
2024-03-12T15:59:27.842Z,9.38
2024-03-12T16:01:57.957Z,9.33
2024-03-12T16:04:28.815Z,9.26
2024-03-12T16:06:58.621Z,9.20
2024-03-12T16:09:30.979Z,9.14
2024-03-12T16:12:01.324Z,9.08
2024-03-12T16:14:31.270Z,9.04
2024-03-12T16:17:01.151Z,9.01
2024-03-12T16:19:32.489Z,8.97
2024-03-12T16:22:02.366Z,8.95
2024-03-12T16:24:34.837Z,8.92
2024-03-12T16:27:05.278Z,8.90
2024-03-12T16:29:36.422Z,8.87
2024-03-12T16:32:11.783Z,8.84
2024-03-12T16:34:41.555Z,8.83
2024-03-12T16:37:11.439Z,8.81
2024-03-12T16:39:43.910Z,8.78
2024-03-12T16:42:14.295Z,8.77
2024-03-12T16:44:44.171Z,8.74
2024-03-12T16:47:14.108Z,8.73
2024-03-12T16:49:43.863Z,8.71
2024-03-12T16:52:15.581Z,8.68
2024-03-12T16:54:48.872Z,8.64
2024-03-12T16:57:19.079Z,8.61
2024-03-12T16:59:53.443Z,8.59
2024-03-12T17:02:23.268Z,8.57
2024-03-12T17:04:57.748Z,8.54
2024-03-12T17:07:28.598Z,8.51
2024-03-12T17:10:02.254Z,8.49
2024-03-12T17:12:35.326Z,8.46
2024-03-12T17:15:06.317Z,8.44
2024-03-12T17:17:37.717Z,8.43
2024-03-12T17:20:10.937Z,8.41
2024-03-12T17:22:43.753Z,8.38
2024-03-12T17:25:18.598Z,8.37
2024-03-12T17:27:50.640Z,8.35
2024-03-12T17:30:21.950Z,8.34
2024-03-12T17:32:52.519Z,8.34
2024-03-12T17:35:23.203Z,8.30
2024-03-12T17:37:57.205Z,8.29
2024-03-12T17:40:30.368Z,8.26
2024-03-12T17:43:01.953Z,8.26
2024-03-12T17:45:33.046Z,8.24
2024-03-12T17:48:05.991Z,8.23
2024-03-12T17:50:36.705Z,8.22
2024-03-12T17:53:08.017Z,8.22
2024-03-12T17:55:44.128Z,8.22
2024-03-12T17:58:17.729Z,8.22
2024-03-12T18:00:48.991Z,8.23
2024-03-12T18:03:21.100Z,8.24
2024-03-12T18:05:52.399Z,8.26
2024-03-12T18:08:26.830Z,8.28
2024-03-12T18:11:01.638Z,8.32
2024-03-12T18:13:32.127Z,8.33
2024-03-12T18:16:04.681Z,8.36
2024-03-12T18:18:37.109Z,8.36
2024-03-12T18:21:08.404Z,8.37
2024-03-12T18:23:38.397Z,8.38
2024-03-12T18:26:11.169Z,8.38
2024-03-12T18:28:45.802Z,8.38
2024-03-12T18:31:16.890Z,8.38
2024-03-12T18:33:50.013Z,8.37
2024-03-12T18:36:21.198Z,8.36
2024-03-12T18:38:51.574Z,8.34
2024-03-12T18:41:25.013Z,8.32
2024-03-12T18:43:55.832Z,8.29
2024-03-12T18:46:26.162Z,8.26
2024-03-12T18:48:58.564Z,8.25
2024-03-12T18:51:30.524Z,8.22
2024-03-12T18:54:03.652Z,8.20
2024-03-12T18:56:40.048Z,8.17
2024-03-12T18:59:11.562Z,8.14
2024-03-12T19:01:43.686Z,8.11
2024-03-12T19:04:14.181Z,8.10
2024-03-12T19:06:45.825Z,8.08
2024-03-12T19:09:20.938Z,8.05
2024-03-12T19:11:54.172Z,8.02
2024-03-12T19:14:24.676Z,7.97
2024-03-12T19:16:55.752Z,7.93
2024-03-12T19:19:30.489Z,7.90
2024-03-12T19:22:02.513Z,7.87
2024-03-12T19:24:33.894Z,7.82
2024-03-12T19:27:09.623Z,7.79
2024-03-12T19:29:42.210Z,7.77
2024-03-12T19:32:16.750Z,7.73
2024-03-12T19:34:47.470Z,7.71
2024-03-12T19:37:17.693Z,7.69
2024-03-12T19:39:49.216Z,7.69
2024-03-12T19:42:22.484Z,7.69
2024-03-12T19:44:54.203Z,7.65
2024-03-12T19:47:29.906Z,7.65
2024-03-12T19:50:01.844Z,7.63
2024-03-12T19:52:33.841Z,7.62
2024-03-12T19:55:04.127Z,7.60
2024-03-12T19:57:36.910Z,7.60
2024-03-12T20:00:13.622Z,7.59
2024-03-12T20:02:43.830Z,7.58
2024-03-12T20:05:13.651Z,7.57
2024-03-12T20:07:45.749Z,7.55
2024-03-12T20:10:17.420Z,7.53
2024-03-12T20:12:55.695Z,7.49
2024-03-12T20:15:26.251Z,7.48
2024-03-12T20:17:56.462Z,7.45
2024-03-12T20:20:26.571Z,7.43
2024-03-12T20:22:56.938Z,7.41
2024-03-12T20:25:27.765Z,7.41
2024-03-12T20:28:01.496Z,7.40
2024-03-12T20:30:32.168Z,7.37
2024-03-12T20:33:03.048Z,7.35
2024-03-12T20:35:33.671Z,7.34
2024-03-12T20:38:03.820Z,7.33
2024-03-12T20:40:40.869Z,7.33
2024-03-12T20:43:13.541Z,7.33
2024-03-12T20:45:46.557Z,7.32
2024-03-12T20:48:17.181Z,7.31
2024-03-12T20:50:47.391Z,7.30
2024-03-12T20:53:18.881Z,7.31
2024-03-12T20:55:49.273Z,7.30
2024-03-12T20:58:21.674Z,7.29
2024-03-12T21:00:52.521Z,7.29
2024-03-12T21:03:22.750Z,7.29
2024-03-12T21:05:52.996Z,7.29
2024-03-12T21:08:22.799Z,7.29
2024-03-12T21:10:52.708Z,7.30
2024-03-12T21:13:25.720Z,7.29
2024-03-12T21:15:55.596Z,7.29
2024-03-12T21:18:27.978Z,7.29
2024-03-12T21:20:57.893Z,7.29
2024-03-12T21:23:27.758Z,7.28
2024-03-12T21:25:57.473Z,7.29
2024-03-12T21:28:30.799Z,7.29
2024-03-12T21:31:00.712Z,7.31
2024-03-12T21:33:30.752Z,7.31
2024-03-12T21:36:01.032Z,7.32
2024-03-12T21:38:30.789Z,7.35
2024-03-12T21:41:01.660Z,7.36
2024-03-12T21:43:34.064Z,7.37
2024-03-12T21:46:06.285Z,7.39
2024-03-12T21:48:36.142Z,7.40
2024-03-12T21:51:06.756Z,7.40
2024-03-12T21:53:36.617Z,7.37
2024-03-12T21:56:08.613Z,7.33
2024-03-12T21:58:43.754Z,7.30
2024-03-12T22:01:13.962Z,7.29
2024-03-12T22:03:44.151Z,7.28
2024-03-12T22:06:15.501Z,7.27
2024-03-12T22:08:45.639Z,7.26
2024-03-12T22:11:15.859Z,7.27
2024-03-12T22:13:50.868Z,7.27
2024-03-12T22:16:20.798Z,7.28
2024-03-12T22:18:50.655Z,7.29
2024-03-12T22:21:23.885Z,7.27
2024-03-12T22:23:55.008Z,7.27
2024-03-12T22:26:25.368Z,7.24
2024-03-12T22:28:58.297Z,7.22
2024-03-12T22:31:28.125Z,7.18
2024-03-12T22:33:57.989Z,7.16
2024-03-12T22:36:27.739Z,7.15
2024-03-12T22:38:58.065Z,7.15
2024-03-12T22:41:28.594Z,7.13
2024-03-12T22:44:01.704Z,7.14
2024-03-12T22:46:31.894Z,7.14
2024-03-12T22:49:03.998Z,7.15
2024-03-12T22:51:33.790Z,7.17
2024-03-12T22:54:03.823Z,7.17
2024-03-12T22:56:34.224Z,7.19
2024-03-12T22:59:07.810Z,7.22
2024-03-12T23:01:41.146Z,7.22
2024-03-12T23:04:11.672Z,7.23
2024-03-12T23:06:44.535Z,7.26
2024-03-12T23:09:18.731Z,7.28
2024-03-12T23:11:48.444Z,7.31
2024-03-12T23:14:22.638Z,7.32
2024-03-12T23:16:52.554Z,7.33
2024-03-12T23:19:23.043Z,7.35
2024-03-12T23:21:53.253Z,7.37
2024-03-12T23:24:24.306Z,7.40
2024-03-12T23:26:56.240Z,7.40
2024-03-12T23:29:29.154Z,7.40
2024-03-12T23:31:58.940Z,7.40
2024-03-12T23:34:29.083Z,7.41
2024-03-12T23:37:00.314Z,7.41
2024-03-12T23:39:30.407Z,7.42
2024-03-12T23:42:01.321Z,7.40
2024-03-12T23:44:36.467Z,7.40
2024-03-12T23:47:08.725Z,7.40
2024-03-12T23:49:40.483Z,7.42
2024-03-12T23:52:12.383Z,7.42
2024-03-12T23:54:42.782Z,7.43
2024-03-12T23:57:13.996Z,7.43
2024-03-12T23:59:46.545Z,7.47
